This is the latest recevied weather packets stored in our database for station/object WC0AA-WX. If no packets are shown the sender has not sent any weather packets the latest 10 day(s).
| Time | Temp. | Humidity | Pressure | Rain* | Wind** | Luminosity | Snow |
|---|---|---|---|---|---|---|---|
| 1777704924 | 1.67° C | 83% | 1020.8 hPa | 0 mm | - | - | - |
| 1777704323 | 2.22° C | 84% | 1020.8 hPa | 0 mm | - | - | - |
| 1777703721 | 2.22° C | 83% | 1020.8 hPa | 0 mm | - | - | - |
| 1777700115 | 3.89° C | 75% | 1020.6 hPa | 0 mm | - | - | - |
| 1777698913 | 4.44° C | 70% | 1020.4 hPa | 0 mm | - | - | - |
| 1777698312 | 4.44° C | 71% | 1020.3 hPa | 0 mm | - | - | - |
| 1777696509 | 5.56° C | 64% | 1020 hPa | 0 mm | - | - | - |
| 1777694706 | 7.22° C | 56% | 1020 hPa | 0 mm | - | - | - |
| 1777694105 | 7.22° C | 56% | 1019.9 hPa | 0 mm | - | - | - |
| 1777693504 | 7.78° C | 56% | 1019.9 hPa | 0 mm | - | - | - |
| 1777692302 | 7.22° C | 57% | 1019.9 hPa | 0 mm | - | - | - |
| 1777691701 | 7.78° C | 55% | 1019.8 hPa | 0 mm | - | - | - |
| 1777690500 | 8.89° C | 50% | 1019.5 hPa | 0 mm | - | - | - |
| 1777686293 | 11.67° C | 41% | 1018.2 hPa | 0 mm | - | - | - |
| 1777685692 | 12.22° C | 40% | 1018.1 hPa | 0 mm | - | - | - |
| 1777655044 | 17.78° C | 45% | 1018.8 hPa | 0 mm | - | - | - |
| 1777638820 | 4.44° C | 88% | 1018.7 hPa | 0 mm | - | - | - |
| 1777638219 | 4.44° C | 87% | 1018.7 hPa | 0 mm | - | - | - |
| 1777637618 | 3.89° C | 88% | 1018.7 hPa | 0 mm | - | - | - |
| 1777636416 | 2.22° C | 100% | 1018.7 hPa | 0 mm | - | - | - |
| 1777635815 | 1.67° C | 100% | 1018.5 hPa | 0 mm | - | - | - |
| 1777635215 | 1.67° C | 100% | 1018.5 hPa | 0 mm | - | - | - |
| 1777634613 | 0.56° C | 100% | 1018.5 hPa | 0 mm | - | - | - |
| 1777634012 | 1.11° C | 100% | 1018.6 hPa | 0 mm | - | - | - |
| 1777633411 | 1.67° C | 100% | 1018.5 hPa | 0 mm | - | - | - |
* Rain latest hour (hover to see other rain measurements)
** Current wind speed in m/s (hover to see current wind gust speed)